createdAt,value
2023-04-01T00:01:03.058Z,100.00
2023-04-01T00:03:30.509Z,100.00
2023-04-01T00:05:58.388Z,100.00
2023-04-01T00:08:26.089Z,100.00
2023-04-01T00:10:53.106Z,100.00
2023-04-01T00:13:20.592Z,100.00
2023-04-01T00:15:47.683Z,100.00
2023-04-01T00:18:14.721Z,100.00
2023-04-01T00:20:48.711Z,100.00
2023-04-01T00:23:16.048Z,100.00
2023-04-01T00:25:43.176Z,100.00
2023-04-01T00:28:09.589Z,100.00
2023-04-01T00:30:37.834Z,100.00
2023-04-01T00:33:04.952Z,100.00
2023-04-01T00:35:31.653Z,100.00
2023-04-01T00:37:58.263Z,100.00
2023-04-01T00:40:29.138Z,100.00
2023-04-01T00:42:55.846Z,100.00
2023-04-01T00:45:37.395Z,100.00
2023-04-01T00:48:09.732Z,100.00
2023-04-01T00:50:37.775Z,100.00
2023-04-01T00:53:06.394Z,100.00
2023-04-01T00:55:36.496Z,100.00
2023-04-01T00:58:06.577Z,100.00
2023-04-01T01:00:34.043Z,100.00
2023-04-01T01:03:01.533Z,100.00
2023-04-01T01:05:48.533Z,100.00
2023-04-01T01:08:38.474Z,100.00
2023-04-01T01:11:09.158Z,100.00
2023-04-01T01:13:45.783Z,100.00
2023-04-01T01:16:28.074Z,100.00
2023-04-01T01:19:06.290Z,100.00
2023-04-01T01:22:04.060Z,100.00
2023-04-01T01:24:53.753Z,100.00
2023-04-01T01:27:23.162Z,100.00
2023-04-01T01:30:11.514Z,100.00
2023-04-01T01:32:54.548Z,100.00
2023-04-01T01:35:28.072Z,100.00
2023-04-01T01:38:04.534Z,100.00
2023-04-01T01:40:34.182Z,100.00
2023-04-01T01:43:07.598Z,100.00
2023-04-01T01:45:37.677Z,100.00
2023-04-01T01:48:06.302Z,100.00
2023-04-01T01:50:33.822Z,100.00
2023-04-01T01:53:09.487Z,100.00
2023-04-01T01:55:38.978Z,100.00
2023-04-01T01:58:18.672Z,100.00
2023-04-01T02:00:51.055Z,100.00
2023-04-01T02:03:20.588Z,100.00
2023-04-01T02:05:47.183Z,100.00
2023-04-01T02:08:24.512Z,100.00
2023-04-01T02:11:00.981Z,100.00
2023-04-01T02:13:51.303Z,100.00
2023-04-01T02:16:24.975Z,100.00
2023-04-01T02:18:56.925Z,100.00
2023-04-01T02:21:27.355Z,100.00
2023-04-01T02:23:55.308Z,100.00
2023-04-01T02:26:22.435Z,100.00
2023-04-01T02:28:51.634Z,100.00
2023-04-01T02:31:18.437Z,100.00
2023-04-01T02:33:46.054Z,100.00
2023-04-01T02:36:14.442Z,100.00
2023-04-01T02:38:42.440Z,100.00
2023-04-01T02:41:08.920Z,100.00
2023-04-01T02:43:35.442Z,100.00
2023-04-01T02:46:02.708Z,100.00
2023-04-01T02:48:29.870Z,100.00
2023-04-01T02:50:56.702Z,100.00
2023-04-01T02:53:23.335Z,100.00
2023-04-01T02:55:51.433Z,100.00
2023-04-01T02:58:17.974Z,100.00
2023-04-01T03:00:44.727Z,100.00
2023-04-01T03:03:11.350Z,100.00
2023-04-01T03:05:37.809Z,100.00
2023-04-01T03:08:04.364Z,100.00
2023-04-01T03:10:30.788Z,100.00
2023-04-01T03:12:57.257Z,100.00
2023-04-01T03:15:23.654Z,100.00
2023-04-01T03:17:50.229Z,100.00
2023-04-01T03:20:16.977Z,100.00
2023-04-01T03:22:43.394Z,100.00
2023-04-01T03:25:10.994Z,100.00
2023-04-01T03:27:38.396Z,100.00
2023-04-01T03:30:06.706Z,100.00
2023-04-01T03:32:38.397Z,100.00
2023-04-01T03:35:06.494Z,100.00
2023-04-01T03:37:33.047Z,100.00
2023-04-01T03:39:59.586Z,100.00
2023-04-01T03:42:26.531Z,100.00
2023-04-01T03:44:53.963Z,100.00
2023-04-01T03:47:20.549Z,100.00
2023-04-01T03:49:46.931Z,100.00
2023-04-01T03:52:13.390Z,100.00
2023-04-01T03:54:40.012Z,100.00
2023-04-01T03:57:06.901Z,100.00
2023-04-01T03:59:34.163Z,100.00
2023-04-01T04:02:00.961Z,100.00
2023-04-01T04:04:28.547Z,100.00
2023-04-01T04:06:55.646Z,100.00
2023-04-01T04:09:23.795Z,100.00
2023-04-01T04:11:50.635Z,100.00
2023-04-01T04:14:17.334Z,100.00
2023-04-01T04:16:45.167Z,100.00
2023-04-01T04:19:11.972Z,100.00
2023-04-01T04:21:38.609Z,100.00
2023-04-01T04:24:05.494Z,100.00
2023-04-01T04:26:51.828Z,100.00
2023-04-01T04:29:18.582Z,100.00
2023-04-01T04:31:45.514Z,100.00
2023-04-01T04:34:12.429Z,100.00
2023-04-01T04:36:38.882Z,100.00
2023-04-01T04:39:05.580Z,100.00
2023-04-01T04:41:35.921Z,100.00
2023-04-01T04:44:03.755Z,100.00
2023-04-01T04:46:30.453Z,100.00
2023-04-01T04:49:06.818Z,100.00
2023-04-01T04:51:36.861Z,100.00
2023-04-01T04:54:04.811Z,100.00
2023-04-01T04:56:52.753Z,100.00
2023-04-01T04:59:19.713Z,100.00
2023-04-01T05:01:56.959Z,100.00
2023-04-01T05:04:23.433Z,100.00
2023-04-01T05:06:49.820Z,100.00
2023-04-01T05:09:17.560Z,100.00
2023-04-01T05:11:44.416Z,100.00
2023-04-01T05:14:17.527Z,100.00
2023-04-01T05:16:52.132Z,100.00
2023-04-01T05:19:18.570Z,100.00
2023-04-01T05:21:45.055Z,100.00
2023-04-01T05:24:11.732Z,100.00
2023-04-01T05:26:38.742Z,100.00
2023-04-01T05:29:05.801Z,100.00
2023-04-01T05:31:32.893Z,100.00
2023-04-01T05:33:59.447Z,100.00
2023-04-01T05:36:26.002Z,100.00
2023-04-01T05:38:57.562Z,100.00
2023-04-01T05:41:26.290Z,100.00
2023-04-01T05:43:52.706Z,100.00
2023-04-01T05:46:37.631Z,100.00
2023-04-01T05:49:14.730Z,98.89
2023-04-01T05:51:41.305Z,97.89
2023-04-01T05:54:08.226Z,97.29
2023-04-01T05:56:35.089Z,97.46
2023-04-01T05:59:02.218Z,97.68
2023-04-01T06:01:28.655Z,97.73
2023-04-01T06:03:55.510Z,96.19
2023-04-01T06:06:27.771Z,97.28
2023-04-01T06:09:08.186Z,95.50
2023-04-01T06:11:53.455Z,96.28
2023-04-01T06:14:50.914Z,97.75
2023-04-01T06:17:35.649Z,97.23
2023-04-01T06:20:42.167Z,98.59
2023-04-01T06:23:33.896Z,98.43
2023-04-01T06:26:15.548Z,98.31
2023-04-01T06:29:04.031Z,97.15
2023-04-01T06:32:08.054Z,94.44
2023-04-01T06:34:47.449Z,94.03
2023-04-01T06:37:46.392Z,93.48
2023-04-01T06:40:47.579Z,94.92
2023-04-01T06:43:31.945Z,95.80
2023-04-01T06:46:44.563Z,94.85
2023-04-01T06:49:50.561Z,94.44
2023-04-01T06:52:48.706Z,94.42
2023-04-01T06:55:45.406Z,93.51
2023-04-01T06:58:52.613Z,93.39
2023-04-01T07:01:27.829Z,93.21
2023-04-01T07:04:02.004Z,93.07
2023-04-01T07:06:37.756Z,92.13
2023-04-01T07:09:14.080Z,93.60
2023-04-01T07:12:29.121Z,91.59
2023-04-01T07:15:20.255Z,91.32
2023-04-01T07:17:50.434Z,91.98
2023-04-01T07:20:23.587Z,92.26
2023-04-01T07:22:55.201Z,92.11
2023-04-01T07:25:44.671Z,90.86
2023-04-01T07:28:39.873Z,90.09
2023-04-01T07:31:36.973Z,92.00
2023-04-01T07:34:36.719Z,91.78
2023-04-01T07:37:13.751Z,90.33
2023-04-01T07:40:15.363Z,89.69
2023-04-01T07:43:08.695Z,91.54
2023-04-01T07:46:16.210Z,90.81
2023-04-01T07:48:48.695Z,89.37
2023-04-01T07:51:29.773Z,90.49
2023-04-01T07:54:07.426Z,88.33
2023-04-01T07:56:53.051Z,89.32
2023-04-01T07:59:52.789Z,89.69
2023-04-01T08:02:38.667Z,88.00
2023-04-01T08:05:21.024Z,87.99
2023-04-01T08:08:13.375Z,89.43
2023-04-01T08:11:26.283Z,87.19
2023-04-01T08:14:23.571Z,86.52
2023-04-01T08:17:35.902Z,88.76
2023-04-01T08:20:05.045Z,88.60
2023-04-01T08:22:45.933Z,87.51
2023-04-01T08:25:26.504Z,86.48
2023-04-01T08:28:02.064Z,85.88
2023-04-01T08:30:51.622Z,87.54
2023-04-01T08:33:29.342Z,87.56
2023-04-01T08:36:08.553Z,86.35
2023-04-01T08:38:47.519Z,85.21
2023-04-01T08:41:51.337Z,85.98
2023-04-01T08:44:51.894Z,87.48
2023-04-01T08:47:39.623Z,86.35
2023-04-01T08:50:31.824Z,85.70
2023-04-01T08:53:44.707Z,86.81
2023-04-01T08:56:27.587Z,84.04
2023-04-01T08:59:30.430Z,86.02
2023-04-01T09:02:28.946Z,86.24
2023-04-01T09:05:17.319Z,84.14
2023-04-01T09:08:00.444Z,85.28
2023-04-01T09:10:57.501Z,84.77
2023-04-01T09:14:20.404Z,83.82
2023-04-01T09:17:18.307Z,85.32
2023-04-01T09:20:02.143Z,86.03
2023-04-01T09:22:45.320Z,85.93
2023-04-01T09:25:39.563Z,84.17
2023-04-01T09:28:21.083Z,82.91
2023-04-01T09:31:24.030Z,85.41
2023-04-01T09:34:32.427Z,84.32
2023-04-01T09:37:35.260Z,85.04
2023-04-01T09:40:21.004Z,84.05
2023-04-01T09:43:23.857Z,84.93
2023-04-01T09:46:24.857Z,84.67
2023-04-01T09:49:08.156Z,83.90
2023-04-01T09:51:43.304Z,85.54
2023-04-01T09:54:36.096Z,84.74
2023-04-01T09:57:28.656Z,84.25
2023-04-01T10:00:36.796Z,83.29
2023-04-01T10:03:37.635Z,83.45
2023-04-01T10:06:37.298Z,83.58
2023-04-01T10:09:42.330Z,81.38
2023-04-01T10:12:28.848Z,81.85
2023-04-01T10:15:22.416Z,81.47
2023-04-01T10:18:02.222Z,80.24
2023-04-01T10:20:57.952Z,80.60
2023-04-01T10:24:01.136Z,80.67
2023-04-01T10:26:32.204Z,81.81
2023-04-01T10:29:43.054Z,81.68
2023-04-01T10:32:44.616Z,79.67
2023-04-01T10:35:29.159Z,80.77
2023-04-01T10:38:07.444Z,79.09
2023-04-01T10:40:47.302Z,80.30
2023-04-01T10:43:58.497Z,81.17
2023-04-01T10:46:57.079Z,81.46
2023-04-01T10:49:42.390Z,80.54
2023-04-01T10:52:34.068Z,81.11
2023-04-01T10:55:38.849Z,81.10
2023-04-01T10:58:40.089Z,82.06
2023-04-01T11:02:04.083Z,83.47
2023-04-01T11:05:38.576Z,80.91
2023-04-01T11:08:58.163Z,81.69
2023-04-01T11:11:42.298Z,83.42
2023-04-01T11:14:46.374Z,83.60
2023-04-01T11:17:36.265Z,84.48
2023-04-01T11:20:37.127Z,83.71
2023-04-01T11:23:06.853Z,83.82
2023-04-01T11:26:04.810Z,82.62
2023-04-01T11:28:55.765Z,82.84
2023-04-01T11:32:08.706Z,84.14
2023-04-01T11:34:59.294Z,84.87
2023-04-01T11:37:46.284Z,83.54
2023-04-01T11:40:37.990Z,84.76
2023-04-01T11:43:39.591Z,84.25
2023-04-01T11:46:34.515Z,84.34
2023-04-01T11:49:48.592Z,82.61
2023-04-01T11:52:57.649Z,83.86
2023-04-01T11:55:47.729Z,83.00
2023-04-01T11:58:38.451Z,82.69
2023-04-01T12:01:22.964Z,83.06
2023-04-01T12:04:12.286Z,81.64
2023-04-01T12:06:41.674Z,83.19
2023-04-01T12:09:33.982Z,83.43
2023-04-01T12:12:33.256Z,83.29
2023-04-01T12:15:14.960Z,83.37
2023-04-01T12:18:07.011Z,81.10
2023-04-01T12:21:15.871Z,82.32
2023-04-01T12:24:01.158Z,83.39
2023-04-01T12:26:42.032Z,81.58
2023-04-01T12:29:49.779Z,82.69
2023-04-01T12:32:41.351Z,81.41
2023-04-01T12:35:07.830Z,80.90
2023-04-01T12:37:42.774Z,82.91
2023-04-01T12:40:39.258Z,82.35
2023-04-01T12:43:18.260Z,82.38
2023-04-01T12:46:16.030Z,83.04
2023-04-01T12:49:09.174Z,81.99
2023-04-01T12:51:52.204Z,84.06
2023-04-01T12:54:47.692Z,84.60
2023-04-01T12:57:43.902Z,81.31
2023-04-01T13:00:28.033Z,82.90
2023-04-01T13:03:16.485Z,83.75
2023-04-01T13:06:10.928Z,82.60
2023-04-01T13:08:49.421Z,81.29
2023-04-01T13:11:43.379Z,80.97
2023-04-01T13:14:31.367Z,82.60
2023-04-01T13:17:11.432Z,83.03
2023-04-01T13:20:01.970Z,82.67
2023-04-01T13:22:39.922Z,82.14
2023-04-01T13:25:33.050Z,81.11
2023-04-01T13:28:15.033Z,80.77
2023-04-01T13:30:57.204Z,81.64
2023-04-01T13:33:39.204Z,83.61
2023-04-01T13:36:23.475Z,82.13
2023-04-01T13:39:16.117Z,80.35
2023-04-01T13:42:23.164Z,81.34
2023-04-01T13:44:57.513Z,82.09
2023-04-01T13:47:44.860Z,83.32
2023-04-01T13:50:30.208Z,81.87
2023-04-01T13:53:26.259Z,82.17
2023-04-01T13:56:08.736Z,79.90
2023-04-01T13:58:44.211Z,80.54
2023-04-01T14:01:35.709Z,82.40
2023-04-01T14:04:30.181Z,81.42
2023-04-01T14:07:17.631Z,81.54
2023-04-01T14:10:08.189Z,81.85
2023-04-01T14:13:18.716Z,80.03
2023-04-01T14:16:00.271Z,80.81
2023-04-01T14:18:42.834Z,79.71
2023-04-01T14:21:26.563Z,78.10
2023-04-01T14:24:16.299Z,80.21
2023-04-01T14:26:51.776Z,81.89
2023-04-01T14:29:43.407Z,79.66
2023-04-01T14:32:25.910Z,79.51
2023-04-01T14:35:17.442Z,79.38
2023-04-01T14:38:02.226Z,79.25
2023-04-01T14:40:51.921Z,79.88
2023-04-01T14:44:14.596Z,79.93
2023-04-01T14:47:21.240Z,78.94
2023-04-01T14:49:51.872Z,78.01
2023-04-01T14:52:29.822Z,78.73
2023-04-01T14:54:58.534Z,79.58
2023-04-01T14:57:29.082Z,80.01
2023-04-01T15:00:02.681Z,80.03
2023-04-01T15:02:42.880Z,79.28
2023-04-01T15:05:17.692Z,79.86
2023-04-01T15:08:14.475Z,81.53
2023-04-01T15:10:53.859Z,79.98
2023-04-01T15:13:31.195Z,81.42
2023-04-01T15:16:09.793Z,82.09
2023-04-01T15:18:46.366Z,81.42
2023-04-01T15:21:40.810Z,82.41
2023-04-01T15:24:24.979Z,81.45
2023-04-01T15:27:06.309Z,82.87
2023-04-01T15:29:44.374Z,82.13
2023-04-01T15:32:20.175Z,83.58
2023-04-01T15:35:07.529Z,81.89
2023-04-01T15:37:57.635Z,83.36
2023-04-01T15:40:31.311Z,81.66
2023-04-01T15:43:23.334Z,81.40
2023-04-01T15:46:16.171Z,80.86
2023-04-01T15:48:57.570Z,81.04
2023-04-01T15:51:45.017Z,81.95
2023-04-01T15:54:24.652Z,82.13
2023-04-01T15:57:15.364Z,83.80
2023-04-01T15:59:59.863Z,84.18
2023-04-01T16:02:45.581Z,82.84
2023-04-01T16:05:31.628Z,83.63
2023-04-01T16:08:33.654Z,83.33
2023-04-01T16:11:27.740Z,84.70
2023-04-01T16:14:06.024Z,82.16
2023-04-01T16:17:05.773Z,81.71
2023-04-01T16:19:51.378Z,80.40
2023-04-01T16:22:26.558Z,81.78
2023-04-01T16:25:18.735Z,82.47
2023-04-01T16:28:01.220Z,81.99
2023-04-01T16:30:39.277Z,82.29
2023-04-01T16:33:35.256Z,81.52
2023-04-01T16:36:21.601Z,82.12
2023-04-01T16:39:16.854Z,82.22
2023-04-01T16:41:50.584Z,80.64
2023-04-01T16:44:23.846Z,80.26
2023-04-01T16:46:56.845Z,81.09
2023-04-01T16:49:33.040Z,81.03
2023-04-01T16:52:16.229Z,82.16
2023-04-01T16:55:00.946Z,81.16
2023-04-01T16:57:43.686Z,80.89
2023-04-01T17:00:19.531Z,79.47
2023-04-01T17:03:08.885Z,80.66
2023-04-01T17:05:55.432Z,81.22
2023-04-01T17:08:30.553Z,81.18
2023-04-01T17:11:12.314Z,79.34
2023-04-01T17:13:48.571Z,79.15
2023-04-01T17:16:39.894Z,80.57
2023-04-01T17:19:43.438Z,80.39
2023-04-01T17:22:37.578Z,80.54
2023-04-01T17:25:39.237Z,78.88
2023-04-01T17:28:24.371Z,79.58
2023-04-01T17:30:58.459Z,79.72
2023-04-01T17:33:49.700Z,78.44
2023-04-01T17:36:40.479Z,78.81
2023-04-01T17:39:37.925Z,79.18
2023-04-01T17:42:16.502Z,78.24
2023-04-01T17:44:54.757Z,78.86
2023-04-01T17:47:44.141Z,79.82
2023-04-01T17:50:19.722Z,80.08
2023-04-01T17:52:56.581Z,80.34
2023-04-01T17:55:42.125Z,79.05
2023-04-01T17:58:15.004Z,79.47
2023-04-01T18:01:16.596Z,79.24
2023-04-01T18:03:56.310Z,79.39
2023-04-01T18:06:52.759Z,77.92
2023-04-01T18:09:25.290Z,77.59
2023-04-01T18:12:13.343Z,78.24
2023-04-01T18:14:55.477Z,76.70
2023-04-01T18:17:26.675Z,76.85
2023-04-01T18:20:08.189Z,76.10
2023-04-01T18:22:43.831Z,76.63
2023-04-01T18:25:20.897Z,77.11
2023-04-01T18:27:53.371Z,76.95
2023-04-01T18:30:27.631Z,77.66
2023-04-01T18:33:02.604Z,75.88
2023-04-01T18:35:51.323Z,77.11
2023-04-01T18:38:30.178Z,77.01
2023-04-01T18:41:45.507Z,75.85
2023-04-01T18:44:20.722Z,75.63
2023-04-01T18:46:57.004Z,74.98
2023-04-01T18:49:51.084Z,73.98
2023-04-01T18:52:32.392Z,75.33
2023-04-01T18:55:02.111Z,74.64
2023-04-01T18:57:42.580Z,75.04
2023-04-01T19:00:21.825Z,74.85
2023-04-01T19:03:17.367Z,74.36
2023-04-01T19:05:48.542Z,75.25
2023-04-01T19:08:29.364Z,75.50
2023-04-01T19:11:11.668Z,74.94
2023-04-01T19:13:55.942Z,75.45
2023-04-01T19:16:53.698Z,75.75
2023-04-01T19:19:37.616Z,75.99
2023-04-01T19:22:12.374Z,74.73
2023-04-01T19:24:54.794Z,75.04
2023-04-01T19:27:35.325Z,73.77
2023-04-01T19:30:37.503Z,74.64
2023-04-01T19:33:24.658Z,72.83
2023-04-01T19:36:08.380Z,73.78
2023-04-01T19:38:53.040Z,74.46
2023-04-01T19:41:45.693Z,74.50
2023-04-01T19:44:32.231Z,75.15
2023-04-01T19:47:23.384Z,74.70
2023-04-01T19:50:27.404Z,73.16
2023-04-01T19:52:58.240Z,71.76
2023-04-01T19:55:41.539Z,70.76
2023-04-01T19:58:16.078Z,69.58
2023-04-01T20:00:48.456Z,71.55
2023-04-01T20:03:39.551Z,72.27
2023-04-01T20:06:44.450Z,72.96
2023-04-01T20:09:43.944Z,72.50
2023-04-01T20:12:25.852Z,72.27
2023-04-01T20:15:00.686Z,72.65
2023-04-01T20:17:42.122Z,73.04
2023-04-01T20:20:11.542Z,73.36
2023-04-01T20:22:47.033Z,73.41
2023-04-01T20:25:37.039Z,72.43
2023-04-01T20:28:15.249Z,72.05
2023-04-01T20:31:06.065Z,72.91
2023-04-01T20:33:58.568Z,73.34
2023-04-01T20:37:04.211Z,72.76
2023-04-01T20:40:14.284Z,73.76
2023-04-01T20:43:11.934Z,73.77
2023-04-01T20:45:57.181Z,73.17
2023-04-01T20:49:02.146Z,72.10
2023-04-01T20:51:35.576Z,71.63
2023-04-01T20:54:25.497Z,72.14
2023-04-01T20:57:02.095Z,71.50
2023-04-01T21:00:06.338Z,71.50
2023-04-01T21:02:57.705Z,71.79
2023-04-01T21:05:29.944Z,70.25
2023-04-01T21:08:19.134Z,70.40
2023-04-01T21:11:04.301Z,70.41
2023-04-01T21:13:42.162Z,71.13
2023-04-01T21:16:24.116Z,71.65
2023-04-01T21:19:06.063Z,72.70
2023-04-01T21:22:17.483Z,71.42
2023-04-01T21:25:14.721Z,71.75
2023-04-01T21:28:12.736Z,72.58
2023-04-01T21:31:08.881Z,71.73
2023-04-01T21:34:16.375Z,72.93
2023-04-01T21:36:54.917Z,71.48
2023-04-01T21:39:43.293Z,72.66
2023-04-01T21:42:48.575Z,73.08
2023-04-01T21:45:25.162Z,72.64
2023-04-01T21:48:23.377Z,72.63
2023-04-01T21:51:14.578Z,72.34
2023-04-01T21:54:12.181Z,72.15
2023-04-01T21:57:12.498Z,72.37
2023-04-01T22:00:18.312Z,72.93
2023-04-01T22:02:47.386Z,73.95
2023-04-01T22:05:26.681Z,72.07
2023-04-01T22:08:02.074Z,72.16
2023-04-01T22:11:08.712Z,72.57
2023-04-01T22:13:50.993Z,71.99
2023-04-01T22:16:40.659Z,71.13
2023-04-01T22:19:27.277Z,72.47
2023-04-01T22:22:23.203Z,72.05
2023-04-01T22:25:28.206Z,71.78
2023-04-01T22:28:06.758Z,72.67
2023-04-01T22:30:41.346Z,71.04
2023-04-01T22:33:23.409Z,71.31
2023-04-01T22:36:30.513Z,70.33
2023-04-01T22:39:23.678Z,72.53
2023-04-01T22:42:08.482Z,71.49
2023-04-01T22:45:04.201Z,71.56
2023-04-01T22:47:40.235Z,70.54
2023-04-01T22:50:25.321Z,72.69
2023-04-01T22:53:02.096Z,72.07
2023-04-01T22:55:33.197Z,71.48
2023-04-01T22:58:05.624Z,71.82
2023-04-01T23:00:41.788Z,72.36
2023-04-01T23:03:19.384Z,71.69
2023-04-01T23:05:51.457Z,71.88
2023-04-01T23:08:56.863Z,72.11
2023-04-01T23:11:29.939Z,71.74
2023-04-01T23:14:32.793Z,72.30
2023-04-01T23:17:24.599Z,71.74
2023-04-01T23:20:06.751Z,71.21
2023-04-01T23:22:58.389Z,72.86
2023-04-01T23:25:46.122Z,72.20
2023-04-01T23:28:15.843Z,72.42
2023-04-01T23:30:42.185Z,71.68
2023-04-01T23:33:20.879Z,72.36
2023-04-01T23:36:06.419Z,71.33
2023-04-01T23:38:37.615Z,71.50
2023-04-01T23:41:06.178Z,72.20
2023-04-01T23:43:39.259Z,72.10
2023-04-01T23:46:08.191Z,72.62
2023-04-01T23:48:39.955Z,71.71
2023-04-01T23:51:18.873Z,71.96
2023-04-01T23:53:48.081Z,71.12
2023-04-01T23:56:18.818Z,70.29
2023-04-01T23:58:49.448Z,70.61
